createdAt,value
2018-06-15T00:00:58.565Z,98858.52
2018-06-15T00:03:29.150Z,98862.42
2018-06-15T00:05:59.273Z,98859.81
2018-06-15T00:08:29.959Z,98857.95
2018-06-15T00:11:00.696Z,98855.11
2018-06-15T00:13:31.314Z,98852.28
2018-06-15T00:16:02.010Z,98849.13
2018-06-15T00:18:32.655Z,98844.70
2018-06-15T00:21:03.362Z,98852.80
2018-06-15T00:23:34.040Z,98853.33
2018-06-15T00:26:05.794Z,98858.80
2018-06-15T00:28:36.594Z,98860.31
2018-06-15T00:31:07.702Z,98860.03
2018-06-15T00:33:38.301Z,98869.66
2018-06-15T00:36:09.013Z,98865.05
2018-06-15T00:38:39.673Z,98863.72
2018-06-15T00:41:10.577Z,98864.22
2018-06-15T00:43:41.174Z,98865.33
2018-06-15T00:46:11.802Z,98868.42
2018-06-15T00:48:42.393Z,98863.49
2018-06-15T00:51:13.510Z,98866.91
2018-06-15T00:53:43.997Z,98859.84
2018-06-15T00:56:14.715Z,98861.41
2018-06-15T00:58:45.448Z,98856.20
2018-06-15T01:01:15.920Z,98850.48
2018-06-15T01:03:46.081Z,98848.91
2018-06-15T01:06:16.778Z,98849.69
2018-06-15T01:08:47.425Z,98844.16
2018-06-15T01:11:18.058Z,98835.58
2018-06-15T01:13:48.781Z,98841.28
2018-06-15T01:16:19.298Z,98840.23
2018-06-15T01:18:50.397Z,98841.27
2018-06-15T01:21:20.953Z,98834.20
2018-06-15T01:23:51.837Z,98839.16
2018-06-15T01:26:22.637Z,98839.45
2018-06-15T01:28:52.968Z,98850.41
2018-06-15T01:31:23.554Z,98846.47
2018-06-15T01:33:54.488Z,98847.47
2018-06-15T01:36:25.177Z,98846.94
2018-06-15T01:38:56.144Z,98843.33
2018-06-15T01:41:26.842Z,98842.27
2018-06-15T01:43:57.461Z,98842.25
2018-06-15T01:46:27.609Z,98837.83
2018-06-15T01:48:58.734Z,98837.55
2018-06-15T01:51:28.873Z,98840.44
2018-06-15T01:53:59.846Z,98841.98
2018-06-15T01:56:30.014Z,98842.49
2018-06-15T01:59:00.165Z,98847.17
2018-06-15T02:01:30.667Z,98844.34
2018-06-15T02:04:02.384Z,98842.81
2018-06-15T02:06:32.990Z,98845.54
2018-06-15T02:09:03.898Z,98843.72
2018-06-15T02:11:34.482Z,98847.87
2018-06-15T02:14:06.257Z,98850.22
2018-06-15T02:16:36.364Z,98844.73
2018-06-15T02:19:07.261Z,98845.20
2018-06-15T02:21:37.917Z,98852.25
2018-06-15T02:24:08.609Z,98845.52
2018-06-15T02:26:39.093Z,98846.57
2018-06-15T02:29:09.740Z,98843.46
2018-06-15T02:31:40.490Z,98847.08
2018-06-15T02:34:11.580Z,98852.29
2018-06-15T02:36:42.193Z,98847.08
2018-06-15T02:39:13.049Z,98854.10
2018-06-15T02:41:43.530Z,98857.50
2018-06-15T02:44:14.306Z,98855.69
2018-06-15T02:46:44.937Z,98867.64
2018-06-15T02:49:15.673Z,98859.72
2018-06-15T02:51:46.426Z,98864.18
2018-06-15T02:54:16.993Z,98859.05
2018-06-15T02:56:47.834Z,98866.61
2018-06-15T02:59:18.674Z,98864.53
2018-06-15T03:01:49.266Z,98869.71
2018-06-15T03:04:19.929Z,98863.49
2018-06-15T03:06:50.574Z,98860.63
2018-06-15T03:09:21.587Z,98866.11
2018-06-15T03:14:21.962Z,98867.92
2018-06-15T03:16:52.613Z,98871.30
2018-06-15T03:19:23.374Z,98867.39
2018-06-15T03:21:53.925Z,98869.24
2018-06-15T03:24:23.887Z,98870.00
2018-06-15T03:26:54.531Z,98869.76
2018-06-15T03:29:25.397Z,98870.52
2018-06-15T03:31:55.479Z,98871.83
2018-06-15T03:34:26.305Z,98871.56
2018-06-15T03:36:57.002Z,98880.65
2018-06-15T03:39:27.546Z,98877.81
2018-06-15T03:41:58.214Z,98882.53
2018-06-15T03:44:29.214Z,98876.02
2018-06-15T03:46:59.847Z,98879.14
2018-06-15T03:49:30.797Z,98872.36
2018-06-15T03:52:01.430Z,98873.13
2018-06-15T03:54:32.101Z,98870.02
2018-06-15T03:57:02.633Z,98878.06
2018-06-15T03:59:33.369Z,98882.77
2018-06-15T04:02:04.183Z,98889.25
2018-06-15T04:04:35.019Z,98882.46
2018-06-15T04:07:05.790Z,98881.09
2018-06-15T04:09:36.621Z,98889.00
2018-06-15T04:12:07.350Z,98888.77
2018-06-15T04:14:38.231Z,98886.84
2018-06-15T04:17:09.078Z,98891.48
2018-06-15T04:19:39.820Z,98886.52
2018-06-15T04:22:10.245Z,98887.28
2018-06-15T04:24:40.941Z,98887.73
2018-06-15T04:27:11.609Z,98892.45
2018-06-15T04:29:42.443Z,98884.39
2018-06-15T04:32:13.093Z,98888.56
2018-06-15T04:34:43.754Z,98887.50
2018-06-15T04:37:13.982Z,98889.88
2018-06-15T04:39:44.087Z,98888.20
2018-06-15T04:42:14.932Z,98885.16
2018-06-15T04:44:45.762Z,98884.76
2018-06-15T04:47:16.809Z,98884.42
2018-06-15T04:49:47.504Z,98891.20
2018-06-15T04:52:18.173Z,98887.36
2018-06-15T04:54:48.340Z,98879.31
2018-06-15T04:57:19.037Z,98876.48
2018-06-15T04:59:49.133Z,98884.75
2018-06-15T05:02:19.888Z,98884.73
2018-06-15T05:04:49.881Z,98882.55
2018-06-15T05:07:20.587Z,98888.34
2018-06-15T05:09:51.049Z,98888.91
2018-06-15T05:12:21.906Z,98889.83
2018-06-15T05:14:52.734Z,98896.06
2018-06-15T05:17:23.742Z,98892.17
2018-06-15T05:19:54.390Z,98892.50
2018-06-15T05:22:25.286Z,98891.52
2018-06-15T05:24:55.932Z,98893.27
2018-06-15T05:27:26.821Z,98892.10
2018-06-15T05:29:57.507Z,98892.33
2018-06-15T05:32:28.350Z,98891.91
2018-06-15T05:34:58.985Z,98887.25
2018-06-15T05:37:30.050Z,98892.65
2018-06-15T05:40:00.742Z,98893.67
2018-06-15T05:42:31.434Z,98897.18
2018-06-15T05:45:02.185Z,98898.52
2018-06-15T05:47:32.985Z,98897.91
2018-06-15T05:50:03.678Z,98900.27
2018-06-15T05:52:34.725Z,98894.14
2018-06-15T05:55:05.447Z,98885.02
2018-06-15T05:57:36.270Z,98883.83
2018-06-15T06:00:07.177Z,98887.32
2018-06-15T06:02:37.956Z,98889.23
2018-06-15T06:05:08.703Z,98898.69
2018-06-15T06:07:39.377Z,98895.02
2018-06-15T06:10:10.049Z,98899.05
2018-06-15T06:12:40.877Z,98899.14
2018-06-15T06:15:11.574Z,98896.63
2018-06-15T06:17:41.928Z,98889.16
2018-06-15T06:20:12.702Z,98894.87
2018-06-15T06:22:43.654Z,98883.50
2018-06-15T06:25:13.835Z,98882.25
2018-06-15T06:27:44.794Z,98881.42
2018-06-15T06:30:15.241Z,98883.06
2018-06-15T06:32:45.521Z,98887.50
2018-06-15T06:35:16.173Z,98875.67
2018-06-15T06:37:47.105Z,98887.64
2018-06-15T06:40:17.729Z,98879.84
2018-06-15T06:42:48.473Z,98876.55
2018-06-15T06:45:19.214Z,98881.44
2018-06-15T06:47:49.869Z,98872.02
2018-06-15T06:50:20.573Z,98870.84
2018-06-15T06:52:51.373Z,98867.17
2018-06-15T06:55:21.995Z,98864.02
2018-06-15T06:57:52.709Z,98868.73
2018-06-15T07:00:23.405Z,98866.37
2018-06-15T07:02:54.646Z,98862.33
2018-06-15T07:05:24.657Z,98861.66
2018-06-15T07:07:55.641Z,98860.72
2018-06-15T07:10:26.354Z,98850.55
2018-06-15T07:12:57.093Z,98854.38
2018-06-15T07:15:27.222Z,98854.74
2018-06-15T07:17:58.044Z,98850.37
2018-06-15T07:20:28.867Z,98856.38
2018-06-15T07:23:00.541Z,98859.36
2018-06-15T07:25:31.205Z,98866.67
2018-06-15T07:28:01.790Z,98867.34
2018-06-15T07:30:31.885Z,98867.95
2018-06-15T07:33:02.650Z,98876.12
2018-06-15T07:35:33.157Z,98875.66
2018-06-15T07:38:03.967Z,98873.16
2018-06-15T07:40:34.621Z,98866.37
2018-06-15T07:43:05.287Z,98873.20
2018-06-15T07:45:35.954Z,98868.94
2018-06-15T07:48:06.778Z,98867.75
2018-06-15T07:50:37.433Z,98873.03
2018-06-15T07:53:08.265Z,98873.97
2018-06-15T07:55:38.813Z,98877.16
2018-06-15T07:58:09.632Z,98879.14
2018-06-15T08:00:40.357Z,98877.55
2018-06-15T08:03:11.195Z,98872.39
2018-06-15T08:05:41.753Z,98875.83
2018-06-15T08:08:12.746Z,98874.34
2018-06-15T08:10:43.225Z,98873.45
2018-06-15T08:13:13.277Z,98885.52
2018-06-15T08:15:43.945Z,98884.65
2018-06-15T08:18:14.670Z,98888.45
2018-06-15T08:20:45.313Z,98894.91
2018-06-15T08:23:16.074Z,98888.35
2018-06-15T08:25:46.665Z,98900.48
2018-06-15T08:28:17.169Z,98893.38
2018-06-15T08:30:47.749Z,98883.64
2018-06-15T08:33:18.563Z,98890.81
2018-06-15T08:35:49.242Z,98894.41
2018-06-15T08:38:20.252Z,98900.25
2018-06-15T08:40:50.769Z,98905.25
2018-06-15T08:43:21.442Z,98904.70
2018-06-15T08:45:51.669Z,98896.80
2018-06-15T08:48:21.956Z,98899.00
2018-06-15T08:50:52.799Z,98896.13
2018-06-15T08:53:23.777Z,98890.34
2018-06-15T08:55:54.444Z,98893.27
2018-06-15T08:58:25.309Z,98899.80
2018-06-15T09:00:56.047Z,98897.84
2018-06-15T09:03:26.914Z,98894.56
2018-06-15T09:05:57.767Z,98898.27
2018-06-15T09:08:28.406Z,98900.48
2018-06-15T09:10:59.070Z,98905.08
2018-06-15T09:13:29.786Z,98898.00
2018-06-15T09:16:00.584Z,98903.07
2018-06-15T09:18:31.362Z,98911.19
2018-06-15T09:21:01.506Z,98920.23
2018-06-15T09:23:32.552Z,98917.22
2018-06-15T09:26:03.215Z,98913.78
2018-06-15T09:28:34.358Z,98914.52
2018-06-15T09:31:04.995Z,98905.05
2018-06-15T09:33:35.681Z,98913.16
2018-06-15T09:36:06.185Z,98925.66
2018-06-15T09:38:36.336Z,98926.28
2018-06-15T09:41:06.925Z,98912.31
2018-06-15T09:43:37.611Z,98916.08
2018-06-15T09:46:08.189Z,98918.00
2018-06-15T09:48:42.829Z,98916.65
2018-06-15T09:51:14.262Z,98920.47
2018-06-15T09:53:45.049Z,98924.70
2018-06-15T09:56:15.711Z,98922.45
2018-06-15T09:58:46.357Z,98921.02
2018-06-15T10:01:16.989Z,98917.51
2018-06-15T10:03:47.726Z,98908.45
2018-06-15T10:06:18.418Z,98906.35
2018-06-15T10:08:49.160Z,98897.58
2018-06-15T10:11:19.886Z,98895.80
2018-06-15T10:13:50.978Z,98884.62
2018-06-15T10:16:21.500Z,98872.55
2018-06-15T10:18:52.179Z,98870.81
2018-06-15T10:21:22.377Z,98860.30
2018-06-15T10:23:52.874Z,98856.58
2018-06-15T10:26:23.851Z,98857.42
2018-06-15T10:28:54.486Z,98849.59
2018-06-15T10:31:25.258Z,98844.54
2018-06-15T10:33:55.998Z,98828.40
2018-06-15T10:36:26.986Z,98826.22
2018-06-15T10:38:57.593Z,98815.73
2018-06-15T10:41:28.277Z,98804.60
2018-06-15T10:43:58.360Z,98796.08
2018-06-15T10:46:29.393Z,98778.76
2018-06-15T10:49:00.122Z,98769.95
2018-06-15T10:51:31.214Z,98761.14
2018-06-15T10:54:01.866Z,98753.44
2018-06-15T10:56:32.581Z,98749.89
2018-06-15T10:59:02.485Z,98736.47
2018-06-15T11:01:32.605Z,98728.67
2018-06-15T11:04:03.320Z,98729.36
2018-06-15T11:06:33.953Z,98734.75
2018-06-15T11:09:06.782Z,98737.77
2018-06-15T11:11:37.310Z,98740.98
2018-06-15T11:14:08.006Z,98750.27
2018-06-15T11:16:38.797Z,98747.86
2018-06-15T11:19:09.611Z,98751.77
2018-06-15T11:21:40.281Z,98762.97
2018-06-15T11:24:11.039Z,98763.53
2018-06-15T11:26:41.790Z,98772.38
2018-06-15T11:29:12.662Z,98781.20
2018-06-15T11:31:43.302Z,98782.20
2018-06-15T11:34:14.032Z,98782.64
2018-06-15T11:36:44.685Z,98787.44
2018-06-15T11:39:15.341Z,98779.72
2018-06-15T11:41:45.453Z,98787.98
2018-06-15T11:44:16.053Z,98785.50
2018-06-15T11:46:46.814Z,98788.27
2018-06-15T11:49:17.804Z,98779.52
2018-06-15T11:51:48.450Z,98766.11
2018-06-15T11:54:19.542Z,98763.88
2018-06-15T11:56:50.094Z,98761.09
2018-06-15T11:59:20.830Z,98763.84
2018-06-15T12:01:51.595Z,98769.89
2018-06-15T12:04:21.939Z,98767.27
2018-06-15T12:06:52.743Z,98763.72
2018-06-15T12:09:23.658Z,98760.76
2018-06-15T12:11:54.277Z,98766.44
2018-06-15T12:14:25.201Z,98759.44
2018-06-15T12:16:55.678Z,98758.73
2018-06-15T12:19:26.415Z,98758.39
2018-06-15T12:21:57.129Z,98765.86
2018-06-15T12:24:27.889Z,98763.52
2018-06-15T12:26:58.369Z,98773.81
2018-06-15T12:29:29.121Z,98765.88
2018-06-15T12:31:59.133Z,98762.23
2018-06-15T12:34:30.083Z,98754.80
2018-06-15T12:37:00.735Z,98748.70
2018-06-15T12:39:31.463Z,98740.92
2018-06-15T12:42:02.239Z,98724.10
2018-06-15T12:44:38.221Z,98714.48
2018-06-15T12:47:08.870Z,98704.72
2018-06-15T12:49:39.617Z,98703.58
2018-06-15T12:52:11.086Z,98701.57
2018-06-15T12:54:41.901Z,98692.57
2018-06-15T12:57:12.611Z,98690.09
2018-06-15T12:59:43.530Z,98683.60
2018-06-15T13:02:14.355Z,98675.41
2018-06-15T13:04:45.347Z,98677.39
2018-06-15T13:07:15.577Z,98675.08
2018-06-15T13:09:46.697Z,98679.34
2018-06-15T13:12:17.385Z,98665.23
2018-06-15T13:14:48.117Z,98672.84
2018-06-15T13:17:18.726Z,98667.06
2018-06-15T13:19:49.005Z,98665.84
2018-06-15T13:22:19.621Z,98670.62
2018-06-15T13:24:50.380Z,98675.53
2018-06-15T13:27:20.961Z,98673.58
2018-06-15T13:29:51.910Z,98688.94
2018-06-15T13:32:22.385Z,98693.44
2018-06-15T13:34:53.497Z,98729.06
2018-06-15T13:37:25.149Z,98761.34
2018-06-15T13:39:56.102Z,98761.77
2018-06-15T13:42:26.324Z,98781.13
2018-06-15T13:44:57.370Z,98801.28
2018-06-15T13:47:27.886Z,98804.84
2018-06-15T13:49:58.616Z,98809.14
2018-06-15T13:52:28.716Z,98805.80
2018-06-15T13:54:59.382Z,98765.80
2018-06-15T13:57:29.527Z,98775.66
2018-06-15T14:00:00.134Z,98757.08
2018-06-15T14:02:30.724Z,98741.64
2018-06-15T14:05:01.769Z,98747.33
2018-06-15T14:07:32.457Z,98732.73
2018-06-15T14:10:04.382Z,98744.34
2018-06-15T14:12:35.147Z,98756.39
2018-06-15T14:15:05.993Z,98753.27
2018-06-15T14:17:36.650Z,98758.37
2018-06-15T14:20:07.530Z,98737.19
2018-06-15T14:22:38.267Z,98716.33
2018-06-15T14:25:09.189Z,98709.73
2018-06-15T14:27:39.534Z,98710.16
2018-06-15T14:30:11.052Z,98721.56
2018-06-15T14:32:41.767Z,98713.20
2018-06-15T14:35:12.793Z,98719.34
2018-06-15T14:37:42.893Z,98732.42
2018-06-15T14:40:13.737Z,98736.49
2018-06-15T14:42:44.245Z,98745.82
2018-06-15T14:45:15.386Z,98738.24
2018-06-15T14:47:46.195Z,98734.71
2018-06-15T14:50:17.030Z,98741.80
2018-06-15T14:52:47.854Z,98742.59
2018-06-15T14:55:18.573Z,98742.94
2018-06-15T14:57:49.093Z,98752.17
2018-06-15T15:00:19.790Z,98759.20
2018-06-15T15:02:50.450Z,98756.41
2018-06-15T15:05:21.481Z,98755.76
2018-06-15T15:07:52.101Z,98756.02
2018-06-15T15:10:22.737Z,98751.34
2018-06-15T15:12:53.474Z,98758.90
2018-06-15T15:15:24.529Z,98759.94
2018-06-15T15:17:54.727Z,98766.76
2018-06-15T15:20:25.269Z,98778.20
2018-06-15T15:22:55.858Z,98793.80
2018-06-15T15:25:26.484Z,98793.97
2018-06-15T15:27:57.258Z,98801.95
2018-06-15T15:30:28.039Z,98805.63
2018-06-15T15:32:58.837Z,98809.99
2018-06-15T15:35:31.135Z,98817.30
2018-06-15T15:38:01.681Z,98811.62
2018-06-15T15:40:32.343Z,98810.57
2018-06-15T15:43:03.218Z,98820.05
2018-06-15T15:45:33.941Z,98824.02
2018-06-15T15:48:04.121Z,98810.84
2018-06-15T15:50:34.883Z,98815.30
2018-06-15T15:53:05.654Z,98826.38
2018-06-15T15:55:36.284Z,98838.95
2018-06-15T15:58:07.666Z,98836.85
2018-06-15T16:00:38.484Z,98819.23
2018-06-15T16:03:09.316Z,98811.20
2018-06-15T16:05:39.910Z,98809.16
2018-06-15T16:08:10.942Z,98808.25
2018-06-15T16:10:41.774Z,98810.51
2018-06-15T16:13:12.453Z,98825.11
2018-06-15T16:15:43.079Z,98828.88
2018-06-15T16:18:13.919Z,98834.86
2018-06-15T16:20:44.442Z,98849.11
2018-06-15T16:23:15.153Z,98859.89
2018-06-15T16:25:45.830Z,98868.59
2018-06-15T16:28:16.677Z,98871.42
2018-06-15T16:30:47.345Z,98872.13
2018-06-15T16:33:18.434Z,98871.34
2018-06-15T16:35:49.154Z,98868.34
2018-06-15T16:38:20.014Z,98861.81
2018-06-15T16:40:50.766Z,98850.08
2018-06-15T16:43:21.593Z,98860.07
2018-06-15T16:45:52.202Z,98860.02
2018-06-15T16:48:22.759Z,98864.37
2018-06-15T16:50:52.852Z,98860.05
2018-06-15T16:53:23.469Z,98864.32
2018-06-15T16:55:54.250Z,98864.63
2018-06-15T16:58:25.042Z,98871.75
2018-06-15T17:00:55.589Z,98874.55
2018-06-15T17:03:26.462Z,98881.03
2018-06-15T17:05:57.107Z,98881.61
2018-06-15T17:08:28.126Z,98884.05
2018-06-15T17:10:58.854Z,98887.59
2018-06-15T17:13:29.645Z,98892.00
2018-06-15T17:15:59.724Z,98890.56
2018-06-15T17:18:30.547Z,98893.34
2018-06-15T17:21:01.267Z,98893.70
2018-06-15T17:23:32.121Z,98898.66
2018-06-15T17:26:02.866Z,98900.62
2018-06-15T17:28:33.989Z,98902.64
2018-06-15T17:31:04.414Z,98902.53
2018-06-15T17:33:35.077Z,98905.65
2018-06-15T17:36:05.823Z,98913.30
2018-06-15T17:38:36.553Z,98907.81
2018-06-15T17:41:06.698Z,98907.90
2018-06-15T17:43:37.554Z,98907.93
2018-06-15T17:46:08.298Z,98910.77
2018-06-15T17:48:39.074Z,98908.14
2018-06-15T17:51:09.161Z,98909.41
2018-06-15T17:53:39.757Z,98918.94
2018-06-15T17:56:10.406Z,98929.46
2018-06-15T17:58:41.261Z,98926.31
2018-06-15T18:01:11.839Z,98928.70
2018-06-15T18:03:42.670Z,98935.40
2018-06-15T18:06:13.377Z,98934.87
2018-06-15T18:08:44.141Z,98937.19
2018-06-15T18:11:14.957Z,98935.51
2018-06-15T18:13:45.621Z,98931.70
2018-06-15T18:16:16.409Z,98936.92
2018-06-15T18:18:47.490Z,98934.27
2018-06-15T18:21:18.202Z,98933.61
2018-06-15T18:23:48.713Z,98938.59
2018-06-15T18:26:19.709Z,98939.09
2018-06-15T18:28:50.313Z,98936.55
2018-06-15T18:31:20.990Z,98940.97
2018-06-15T18:33:52.107Z,98934.86
2018-06-15T18:36:22.754Z,98945.20
2018-06-15T18:38:53.723Z,98941.51
2018-06-15T18:41:23.737Z,98947.63
2018-06-15T18:43:54.551Z,98945.14
2018-06-15T18:46:25.226Z,98947.65
2018-06-15T18:48:55.422Z,98951.10
2018-06-15T18:51:26.233Z,98949.14
2018-06-15T18:53:57.169Z,98948.88
2018-06-15T18:56:28.113Z,98956.21
2018-06-15T18:58:58.850Z,98961.78
2018-06-15T19:01:29.484Z,98958.28
2018-06-15T19:04:00.226Z,98963.80
2018-06-15T19:06:30.953Z,98960.73
2018-06-15T19:09:01.679Z,98963.84
2018-06-15T19:11:32.259Z,98965.82
2018-06-15T19:14:03.303Z,98967.67
2018-06-15T19:16:33.385Z,98969.98
2018-06-15T19:19:04.210Z,98971.39
2018-06-15T19:21:34.936Z,98971.81
2018-06-15T19:24:05.786Z,98975.39
2018-06-15T19:26:36.473Z,98975.72
2018-06-15T19:29:07.537Z,98977.31
2018-06-15T19:31:38.181Z,98976.06
2018-06-15T19:34:08.946Z,98977.91
2018-06-15T19:36:39.733Z,98966.67
2018-06-15T19:39:11.411Z,98973.47
2018-06-15T19:41:42.154Z,98969.82
2018-06-15T19:44:12.861Z,98974.33
2018-06-15T19:46:43.578Z,98969.11
2018-06-15T19:49:14.282Z,98970.91
2018-06-15T19:51:45.022Z,98978.75
2018-06-15T19:54:16.282Z,98986.55
2018-06-15T19:56:46.853Z,98988.36
2018-06-15T19:59:17.526Z,98990.48
2018-06-15T20:01:48.152Z,98978.25
2018-06-15T20:04:18.897Z,98981.69
2018-06-15T20:06:49.421Z,98979.01
2018-06-15T20:09:20.102Z,98985.28
2018-06-15T20:11:50.237Z,98982.91
2018-06-15T20:14:20.803Z,98986.33
2018-06-15T20:16:51.040Z,98987.69
2018-06-15T20:19:21.827Z,98984.84
2018-06-15T20:21:52.447Z,98977.83
2018-06-15T20:24:23.238Z,98980.15
2018-06-15T20:26:54.385Z,98983.55
2018-06-15T20:29:25.028Z,98989.83
2018-06-15T20:31:56.146Z,98989.32
2018-06-15T20:34:26.865Z,99002.66
2018-06-15T20:36:57.634Z,98999.27
2018-06-15T20:39:28.321Z,98995.84
2018-06-15T20:41:59.166Z,98993.76
2018-06-15T20:44:29.962Z,98991.18
2018-06-15T20:47:00.926Z,98992.53
2018-06-15T20:49:31.447Z,99001.39
2018-06-15T20:52:02.075Z,99002.67
2018-06-15T20:54:32.711Z,99008.39
2018-06-15T20:57:03.745Z,99012.34
2018-06-15T20:59:34.301Z,99012.17
2018-06-15T21:02:05.198Z,99012.43
2018-06-15T21:04:35.634Z,99013.24
2018-06-15T21:07:06.722Z,99019.03
2018-06-15T21:09:37.107Z,99016.67
2018-06-15T21:12:07.989Z,99022.67
2018-06-15T21:14:38.695Z,99021.64
2018-06-15T21:17:09.530Z,99023.23
2018-06-15T21:19:40.242Z,99024.02
2018-06-15T21:22:11.061Z,99033.44
2018-06-15T21:24:41.766Z,99026.66
2018-06-15T21:27:12.218Z,99028.23
2018-06-15T21:29:42.873Z,99035.03
2018-06-15T21:32:13.497Z,99032.68
2018-06-15T21:34:44.190Z,99031.63
2018-06-15T21:37:15.194Z,99025.87
2018-06-15T21:39:45.912Z,99030.84
2018-06-15T21:42:16.725Z,99031.95
2018-06-15T21:44:47.371Z,99033.56
2018-06-15T21:47:18.251Z,99030.64
2018-06-15T21:49:48.993Z,99029.58
2018-06-15T21:52:19.866Z,99032.42
2018-06-15T21:54:50.518Z,99028.73
2018-06-15T21:57:21.197Z,99027.39
2018-06-15T21:59:51.802Z,99017.25
2018-06-15T22:02:22.566Z,99014.39
2018-06-15T22:04:53.406Z,99019.11
2018-06-15T22:07:24.129Z,99019.89
2018-06-15T22:09:54.973Z,99016.74
2018-06-15T22:12:25.214Z,99011.56
2018-06-15T22:14:55.893Z,99011.32
2018-06-15T22:17:26.438Z,99008.20
2018-06-15T22:19:57.443Z,99005.35
2018-06-15T22:22:28.005Z,99002.76
2018-06-15T22:24:58.689Z,99002.80
2018-06-15T22:27:29.382Z,98998.89
2018-06-15T22:29:59.972Z,99001.00
2018-06-15T22:32:30.593Z,99004.39
2018-06-15T22:35:01.293Z,99004.16
2018-06-15T22:37:31.945Z,99005.19
2018-06-15T22:40:03.070Z,99003.88
2018-06-15T22:42:33.710Z,99003.08
2018-06-15T22:45:04.809Z,99006.98
2018-06-15T22:47:35.513Z,98997.63
2018-06-15T22:50:06.227Z,99000.51
2018-06-15T22:52:36.930Z,99002.32
2018-06-15T22:55:07.195Z,99008.33
2018-06-15T22:57:37.782Z,99008.55
2018-06-15T23:00:08.805Z,99008.84
2018-06-15T23:02:39.499Z,99016.06
2018-06-15T23:05:10.368Z,99011.63
2018-06-15T23:07:41.074Z,99010.33
2018-06-15T23:10:11.758Z,99017.03
2018-06-15T23:12:42.342Z,99024.90
2018-06-15T23:15:13.326Z,99023.63
2018-06-15T23:17:44.001Z,99016.88
2018-06-15T23:20:14.781Z,99013.50
2018-06-15T23:22:45.457Z,99020.20
2018-06-15T23:25:16.166Z,99012.30
2018-06-15T23:27:46.841Z,99014.22
2018-06-15T23:30:17.933Z,99014.48
2018-06-15T23:32:48.017Z,99015.78
2018-06-15T23:35:18.768Z,99008.22
2018-06-15T23:37:49.522Z,99010.56
2018-06-15T23:40:20.141Z,99007.19
2018-06-15T23:42:50.232Z,99010.84
2018-06-15T23:45:20.782Z,99022.28
2018-06-15T23:47:51.486Z,99020.73
2018-06-15T23:50:22.033Z,99024.60
2018-06-15T23:52:53.073Z,99029.30
2018-06-15T23:57:53.256Z,99029.28
